sensor_id;sensor_type;location;lat;lon;timestamp;temperature;humidity
25342;DHT22;13298;48.792;9.154;2023-12-14T00:01:21;5.80;99.90
25342;DHT22;13298;48.792;9.154;2023-12-14T00:03:47;5.80;99.90
25342;DHT22;13298;48.792;9.154;2023-12-14T00:06:13;5.80;99.90
25342;DHT22;13298;48.792;9.154;2023-12-14T00:08:40;5.80;99.90
25342;DHT22;13298;48.792;9.154;2023-12-14T00:11:10;5.80;99.90
25342;DHT22;13298;48.792;9.154;2023-12-14T00:13:36;5.80;99.90
25342;DHT22;13298;48.792;9.154;2023-12-14T00:16:02;5.80;99.90
25342;DHT22;13298;48.792;9.154;2023-12-14T00:18:28;5.80;99.90
25342;DHT22;13298;48.792;9.154;2023-12-14T00:20:54;5.80;99.90
25342;DHT22;13298;48.792;9.154;2023-12-14T00:23:21;5.80;99.90
25342;DHT22;13298;48.792;9.154;2023-12-14T00:25:47;5.80;99.90
25342;DHT22;13298;48.792;9.154;2023-12-14T00:28:12;5.80;99.90
25342;DHT22;13298;48.792;9.154;2023-12-14T00:30:39;5.90;99.90
25342;DHT22;13298;48.792;9.154;2023-12-14T00:33:04;5.90;99.90
25342;DHT22;13298;48.792;9.154;2023-12-14T00:35:30;5.90;99.90
25342;DHT22;13298;48.792;9.154;2023-12-14T00:37:56;5.90;99.90
25342;DHT22;13298;48.792;9.154;2023-12-14T00:40:21;5.90;99.90
25342;DHT22;13298;48.792;9.154;2023-12-14T00:42:47;5.90;99.90
25342;DHT22;13298;48.792;9.154;2023-12-14T00:45:13;5.90;99.90
25342;DHT22;13298;48.792;9.154;2023-12-14T00:47:39;5.90;99.90
25342;DHT22;13298;48.792;9.154;2023-12-14T00:50:04;5.90;99.90
25342;DHT22;13298;48.792;9.154;2023-12-14T00:52:30;5.90;99.90
25342;DHT22;13298;48.792;9.154;2023-12-14T00:54:56;5.90;99.90
25342;DHT22;13298;48.792;9.154;2023-12-14T00:57:22;5.90;99.90
25342;DHT22;13298;48.792;9.154;2023-12-14T00:59:48;5.80;99.90
25342;DHT22;13298;48.792;9.154;2023-12-14T01:02:13;5.80;99.90
25342;DHT22;13298;48.792;9.154;2023-12-14T01:04:39;5.80;99.90
25342;DHT22;13298;48.792;9.154;2023-12-14T01:07:05;5.80;99.90
25342;DHT22;13298;48.792;9.154;2023-12-14T01:09:30;5.80;99.90
25342;DHT22;13298;48.792;9.154;2023-12-14T01:11:56;5.80;99.90
25342;DHT22;13298;48.792;9.154;2023-12-14T01:14:22;5.80;99.90
25342;DHT22;13298;48.792;9.154;2023-12-14T01:16:48;5.80;99.90
25342;DHT22;13298;48.792;9.154;2023-12-14T01:19:13;5.80;99.90
25342;DHT22;13298;48.792;9.154;2023-12-14T01:21:39;5.80;99.90
25342;DHT22;13298;48.792;9.154;2023-12-14T01:24:05;5.80;99.90
25342;DHT22;13298;48.792;9.154;2023-12-14T01:26:31;5.80;99.90
25342;DHT22;13298;48.792;9.154;2023-12-14T01:28:56;5.80;99.90
25342;DHT22;13298;48.792;9.154;2023-12-14T01:31:24;5.80;99.90
25342;DHT22;13298;48.792;9.154;2023-12-14T01:33:50;5.80;99.90
25342;DHT22;13298;48.792;9.154;2023-12-14T01:36:23;5.80;99.90
25342;DHT22;13298;48.792;9.154;2023-12-14T01:38:49;5.80;99.90
25342;DHT22;13298;48.792;9.154;2023-12-14T01:41:15;5.80;99.90
25342;DHT22;13298;48.792;9.154;2023-12-14T01:43:41;5.80;99.90
25342;DHT22;13298;48.792;9.154;2023-12-14T01:46:07;5.80;99.90
25342;DHT22;13298;48.792;9.154;2023-12-14T01:48:33;5.70;99.90
25342;DHT22;13298;48.792;9.154;2023-12-14T01:50:58;5.80;99.90
25342;DHT22;13298;48.792;9.154;2023-12-14T01:53:24;5.70;99.90
25342;DHT22;13298;48.792;9.154;2023-12-14T01:55:50;5.60;99.90
25342;DHT22;13298;48.792;9.154;2023-12-14T01:58:15;5.60;99.90
25342;DHT22;13298;48.792;9.154;2023-12-14T02:00:50;5.50;99.90
25342;DHT22;13298;48.792;9.154;2023-12-14T02:03:20;5.50;99.90
25342;DHT22;13298;48.792;9.154;2023-12-14T02:05:46;5.40;99.90
25342;DHT22;13298;48.792;9.154;2023-12-14T02:08:12;5.40;99.90
25342;DHT22;13298;48.792;9.154;2023-12-14T02:10:37;5.40;99.90
25342;DHT22;13298;48.792;9.154;2023-12-14T02:13:03;5.40;99.90
25342;DHT22;13298;48.792;9.154;2023-12-14T02:15:29;5.40;99.90
25342;DHT22;13298;48.792;9.154;2023-12-14T02:17:55;5.40;99.90
25342;DHT22;13298;48.792;9.154;2023-12-14T02:20:21;5.40;99.90
25342;DHT22;13298;48.792;9.154;2023-12-14T02:22:52;5.40;99.90
25342;DHT22;13298;48.792;9.154;2023-12-14T02:25:22;5.40;99.90
25342;DHT22;13298;48.792;9.154;2023-12-14T02:27:49;5.40;99.90
25342;DHT22;13298;48.792;9.154;2023-12-14T02:30:16;5.40;99.90
25342;DHT22;13298;48.792;9.154;2023-12-14T02:32:41;5.40;99.90
25342;DHT22;13298;48.792;9.154;2023-12-14T02:35:08;5.50;99.90
25342;DHT22;13298;48.792;9.154;2023-12-14T02:37:34;5.50;99.90
25342;DHT22;13298;48.792;9.154;2023-12-14T02:40:03;5.50;99.90
25342;DHT22;13298;48.792;9.154;2023-12-14T02:42:30;5.50;99.90
25342;DHT22;13298;48.792;9.154;2023-12-14T02:44:56;5.50;99.90
25342;DHT22;13298;48.792;9.154;2023-12-14T02:47:22;5.50;99.90
25342;DHT22;13298;48.792;9.154;2023-12-14T02:49:48;5.60;99.90
25342;DHT22;13298;48.792;9.154;2023-12-14T02:52:14;5.50;99.90
25342;DHT22;13298;48.792;9.154;2023-12-14T02:54:40;5.60;99.90
25342;DHT22;13298;48.792;9.154;2023-12-14T02:57:06;5.50;99.90
25342;DHT22;13298;48.792;9.154;2023-12-14T02:59:32;5.60;99.90
25342;DHT22;13298;48.792;9.154;2023-12-14T03:01:58;5.60;99.90
25342;DHT22;13298;48.792;9.154;2023-12-14T03:04:23;5.60;99.90
25342;DHT22;13298;48.792;9.154;2023-12-14T03:06:49;5.60;99.90
25342;DHT22;13298;48.792;9.154;2023-12-14T03:09:15;5.60;99.90
25342;DHT22;13298;48.792;9.154;2023-12-14T03:11:41;5.60;99.90
25342;DHT22;13298;48.792;9.154;2023-12-14T03:14:06;5.60;99.90
25342;DHT22;13298;48.792;9.154;2023-12-14T03:16:32;5.60;99.90
25342;DHT22;13298;48.792;9.154;2023-12-14T03:19:00;5.70;99.90
25342;DHT22;13298;48.792;9.154;2023-12-14T03:21:26;5.70;99.90
25342;DHT22;13298;48.792;9.154;2023-12-14T03:23:52;5.70;99.90
25342;DHT22;13298;48.792;9.154;2023-12-14T03:26:18;5.60;99.90
25342;DHT22;13298;48.792;9.154;2023-12-14T03:28:43;5.70;99.90
25342;DHT22;13298;48.792;9.154;2023-12-14T03:31:10;5.70;99.90
25342;DHT22;13298;48.792;9.154;2023-12-14T03:33:37;5.70;99.90
25342;DHT22;13298;48.792;9.154;2023-12-14T03:36:03;5.70;99.90
25342;DHT22;13298;48.792;9.154;2023-12-14T03:38:29;5.70;99.90
25342;DHT22;13298;48.792;9.154;2023-12-14T03:40:55;5.70;99.90
25342;DHT22;13298;48.792;9.154;2023-12-14T03:43:21;5.70;99.90
25342;DHT22;13298;48.792;9.154;2023-12-14T03:45:47;5.70;99.90
25342;DHT22;13298;48.792;9.154;2023-12-14T03:48:13;5.70;99.90
25342;DHT22;13298;48.792;9.154;2023-12-14T03:50:39;5.70;99.90
25342;DHT22;13298;48.792;9.154;2023-12-14T03:53:04;5.70;99.90
25342;DHT22;13298;48.792;9.154;2023-12-14T03:55:30;5.70;99.90
25342;DHT22;13298;48.792;9.154;2023-12-14T03:57:56;5.70;99.90
25342;DHT22;13298;48.792;9.154;2023-12-14T04:00:21;5.80;99.90
25342;DHT22;13298;48.792;9.154;2023-12-14T04:02:47;5.80;99.90
25342;DHT22;13298;48.792;9.154;2023-12-14T04:05:13;5.80;99.90
25342;DHT22;13298;48.792;9.154;2023-12-14T04:07:39;5.80;99.90
25342;DHT22;13298;48.792;9.154;2023-12-14T04:10:09;5.80;99.90
25342;DHT22;13298;48.792;9.154;2023-12-14T04:12:37;5.80;99.90
25342;DHT22;13298;48.792;9.154;2023-12-14T04:15:04;5.80;99.90
25342;DHT22;13298;48.792;9.154;2023-12-14T04:17:30;5.80;99.90
25342;DHT22;13298;48.792;9.154;2023-12-14T04:19:56;5.80;99.90
25342;DHT22;13298;48.792;9.154;2023-12-14T04:22:22;5.80;99.90
25342;DHT22;13298;48.792;9.154;2023-12-14T04:24:48;5.80;99.90
25342;DHT22;13298;48.792;9.154;2023-12-14T04:27:15;5.80;99.90
25342;DHT22;13298;48.792;9.154;2023-12-14T04:29:40;5.80;99.90
25342;DHT22;13298;48.792;9.154;2023-12-14T04:32:07;5.80;99.90
25342;DHT22;13298;48.792;9.154;2023-12-14T04:34:32;5.80;99.90
25342;DHT22;13298;48.792;9.154;2023-12-14T04:36:58;5.80;99.90
25342;DHT22;13298;48.792;9.154;2023-12-14T04:39:24;5.80;99.90
25342;DHT22;13298;48.792;9.154;2023-12-14T04:41:51;5.80;99.90
25342;DHT22;13298;48.792;9.154;2023-12-14T04:44:18;5.80;99.90
25342;DHT22;13298;48.792;9.154;2023-12-14T04:46:44;5.80;99.90
25342;DHT22;13298;48.792;9.154;2023-12-14T04:49:10;5.80;99.90
25342;DHT22;13298;48.792;9.154;2023-12-14T04:51:36;5.80;99.90
25342;DHT22;13298;48.792;9.154;2023-12-14T04:54:02;5.80;99.90
25342;DHT22;13298;48.792;9.154;2023-12-14T04:56:28;5.80;99.90
25342;DHT22;13298;48.792;9.154;2023-12-14T04:58:54;5.80;99.90
25342;DHT22;13298;48.792;9.154;2023-12-14T05:01:20;5.80;99.90
25342;DHT22;13298;48.792;9.154;2023-12-14T05:03:46;5.90;99.90
25342;DHT22;13298;48.792;9.154;2023-12-14T05:06:11;5.90;99.90
25342;DHT22;13298;48.792;9.154;2023-12-14T05:08:37;5.90;99.90
25342;DHT22;13298;48.792;9.154;2023-12-14T05:11:03;5.90;99.90
25342;DHT22;13298;48.792;9.154;2023-12-14T05:13:29;6.00;99.90
25342;DHT22;13298;48.792;9.154;2023-12-14T05:15:55;6.00;99.90
25342;DHT22;13298;48.792;9.154;2023-12-14T05:18:23;6.00;99.90
25342;DHT22;13298;48.792;9.154;2023-12-14T05:20:50;6.00;99.90
25342;DHT22;13298;48.792;9.154;2023-12-14T05:23:15;6.00;99.90
25342;DHT22;13298;48.792;9.154;2023-12-14T05:25:41;6.10;99.90
25342;DHT22;13298;48.792;9.154;2023-12-14T05:28:07;6.10;99.90
25342;DHT22;13298;48.792;9.154;2023-12-14T05:30:33;6.10;99.90
25342;DHT22;13298;48.792;9.154;2023-12-14T05:32:58;6.10;99.90
25342;DHT22;13298;48.792;9.154;2023-12-14T05:35:24;6.10;99.90
25342;DHT22;13298;48.792;9.154;2023-12-14T05:37:50;6.10;99.90
25342;DHT22;13298;48.792;9.154;2023-12-14T05:40:16;6.10;99.90
25342;DHT22;13298;48.792;9.154;2023-12-14T05:42:41;6.10;99.90
25342;DHT22;13298;48.792;9.154;2023-12-14T05:45:07;6.10;99.90
25342;DHT22;13298;48.792;9.154;2023-12-14T05:47:34;6.10;99.90
25342;DHT22;13298;48.792;9.154;2023-12-14T05:50:03;6.10;99.90
25342;DHT22;13298;48.792;9.154;2023-12-14T05:52:30;6.10;99.90
25342;DHT22;13298;48.792;9.154;2023-12-14T05:54:55;6.10;99.90
25342;DHT22;13298;48.792;9.154;2023-12-14T05:57:21;6.10;99.90
25342;DHT22;13298;48.792;9.154;2023-12-14T05:59:49;6.10;99.90
25342;DHT22;13298;48.792;9.154;2023-12-14T06:02:15;6.00;99.90
25342;DHT22;13298;48.792;9.154;2023-12-14T06:04:41;6.00;99.90
25342;DHT22;13298;48.792;9.154;2023-12-14T06:07:06;6.00;99.90
25342;DHT22;13298;48.792;9.154;2023-12-14T06:09:32;6.00;99.90
25342;DHT22;13298;48.792;9.154;2023-12-14T06:12:03;6.00;99.90
25342;DHT22;13298;48.792;9.154;2023-12-14T06:14:30;6.00;99.90
25342;DHT22;13298;48.792;9.154;2023-12-14T06:16:56;6.00;99.90
25342;DHT22;13298;48.792;9.154;2023-12-14T06:19:22;6.10;99.90
25342;DHT22;13298;48.792;9.154;2023-12-14T06:21:48;6.00;99.90
25342;DHT22;13298;48.792;9.154;2023-12-14T06:24:14;6.00;99.90
25342;DHT22;13298;48.792;9.154;2023-12-14T06:26:44;6.00;99.90
25342;DHT22;13298;48.792;9.154;2023-12-14T06:29:11;6.00;99.90
25342;DHT22;13298;48.792;9.154;2023-12-14T06:31:38;6.00;99.90
25342;DHT22;13298;48.792;9.154;2023-12-14T06:34:05;6.00;99.90
25342;DHT22;13298;48.792;9.154;2023-12-14T06:36:31;6.00;99.90
25342;DHT22;13298;48.792;9.154;2023-12-14T06:38:58;6.00;99.90
25342;DHT22;13298;48.792;9.154;2023-12-14T06:41:25;6.00;99.90
25342;DHT22;13298;48.792;9.154;2023-12-14T06:43:51;6.00;99.90
25342;DHT22;13298;48.792;9.154;2023-12-14T06:46:17;6.00;99.90
25342;DHT22;13298;48.792;9.154;2023-12-14T06:48:44;6.10;99.90
25342;DHT22;13298;48.792;9.154;2023-12-14T06:51:10;6.10;99.90
25342;DHT22;13298;48.792;9.154;2023-12-14T06:53:35;6.10;99.90
25342;DHT22;13298;48.792;9.154;2023-12-14T06:56:04;6.20;99.90
25342;DHT22;13298;48.792;9.154;2023-12-14T06:58:30;6.20;99.90
25342;DHT22;13298;48.792;9.154;2023-12-14T07:00:57;6.20;99.90
25342;DHT22;13298;48.792;9.154;2023-12-14T07:03:22;6.30;99.90
25342;DHT22;13298;48.792;9.154;2023-12-14T07:05:48;6.20;99.90
25342;DHT22;13298;48.792;9.154;2023-12-14T07:08:14;6.30;99.90
25342;DHT22;13298;48.792;9.154;2023-12-14T07:10:41;6.30;99.90
25342;DHT22;13298;48.792;9.154;2023-12-14T07:13:07;6.30;99.90
25342;DHT22;13298;48.792;9.154;2023-12-14T07:15:33;6.30;99.90
25342;DHT22;13298;48.792;9.154;2023-12-14T07:17:59;6.30;99.90
25342;DHT22;13298;48.792;9.154;2023-12-14T07:20:25;6.40;99.90
25342;DHT22;13298;48.792;9.154;2023-12-14T07:22:50;6.40;99.90
25342;DHT22;13298;48.792;9.154;2023-12-14T07:25:16;6.40;99.90
25342;DHT22;13298;48.792;9.154;2023-12-14T07:27:42;6.50;99.90
25342;DHT22;13298;48.792;9.154;2023-12-14T07:30:09;6.50;99.90
25342;DHT22;13298;48.792;9.154;2023-12-14T07:32:35;6.50;99.90
25342;DHT22;13298;48.792;9.154;2023-12-14T07:35:01;6.50;99.90
25342;DHT22;13298;48.792;9.154;2023-12-14T07:37:26;6.50;99.90
25342;DHT22;13298;48.792;9.154;2023-12-14T07:39:52;6.40;99.90
25342;DHT22;13298;48.792;9.154;2023-12-14T07:42:18;6.50;99.90
25342;DHT22;13298;48.792;9.154;2023-12-14T07:44:46;6.50;99.90
25342;DHT22;13298;48.792;9.154;2023-12-14T07:47:12;6.50;99.90
25342;DHT22;13298;48.792;9.154;2023-12-14T07:49:38;6.50;99.90
25342;DHT22;13298;48.792;9.154;2023-12-14T07:52:03;6.50;99.90
25342;DHT22;13298;48.792;9.154;2023-12-14T07:54:29;6.50;99.90
25342;DHT22;13298;48.792;9.154;2023-12-14T07:56:55;6.50;99.90
25342;DHT22;13298;48.792;9.154;2023-12-14T07:59:21;6.60;99.90
25342;DHT22;13298;48.792;9.154;2023-12-14T08:01:47;6.60;99.90
25342;DHT22;13298;48.792;9.154;2023-12-14T08:04:12;6.70;99.90
25342;DHT22;13298;48.792;9.154;2023-12-14T08:06:39;6.70;99.90
25342;DHT22;13298;48.792;9.154;2023-12-14T08:09:05;6.70;99.90
25342;DHT22;13298;48.792;9.154;2023-12-14T08:11:32;6.70;99.90
25342;DHT22;13298;48.792;9.154;2023-12-14T08:13:58;6.70;99.90
25342;DHT22;13298;48.792;9.154;2023-12-14T08:16:24;6.70;99.90
25342;DHT22;13298;48.792;9.154;2023-12-14T08:18:49;6.60;99.90
25342;DHT22;13298;48.792;9.154;2023-12-14T08:21:16;6.60;99.90
25342;DHT22;13298;48.792;9.154;2023-12-14T08:23:46;6.60;99.90
25342;DHT22;13298;48.792;9.154;2023-12-14T08:26:11;6.50;99.90
25342;DHT22;13298;48.792;9.154;2023-12-14T08:28:39;6.40;99.90
25342;DHT22;13298;48.792;9.154;2023-12-14T08:31:05;6.40;99.90
25342;DHT22;13298;48.792;9.154;2023-12-14T08:33:30;6.40;99.90
25342;DHT22;13298;48.792;9.154;2023-12-14T08:35:57;6.40;99.90
25342;DHT22;13298;48.792;9.154;2023-12-14T08:38:23;6.30;99.90
25342;DHT22;13298;48.792;9.154;2023-12-14T08:40:49;6.20;99.90
25342;DHT22;13298;48.792;9.154;2023-12-14T08:43:16;6.20;99.90
25342;DHT22;13298;48.792;9.154;2023-12-14T08:45:42;6.10;99.90
25342;DHT22;13298;48.792;9.154;2023-12-14T08:48:08;6.20;99.90
25342;DHT22;13298;48.792;9.154;2023-12-14T08:50:33;6.40;99.90
25342;DHT22;13298;48.792;9.154;2023-12-14T08:52:59;6.60;99.90
25342;DHT22;13298;48.792;9.154;2023-12-14T08:55:25;6.80;99.90
25342;DHT22;13298;48.792;9.154;2023-12-14T08:57:52;6.90;99.90
25342;DHT22;13298;48.792;9.154;2023-12-14T09:00:18;7.00;99.90
25342;DHT22;13298;48.792;9.154;2023-12-14T09:02:45;7.20;99.90
25342;DHT22;13298;48.792;9.154;2023-12-14T09:05:14;7.30;99.90
25342;DHT22;13298;48.792;9.154;2023-12-14T09:07:41;7.40;99.90
25342;DHT22;13298;48.792;9.154;2023-12-14T09:10:07;7.40;99.90
25342;DHT22;13298;48.792;9.154;2023-12-14T09:12:33;7.50;99.90
25342;DHT22;13298;48.792;9.154;2023-12-14T09:15:00;7.50;99.90
25342;DHT22;13298;48.792;9.154;2023-12-14T09:17:26;7.60;99.90
25342;DHT22;13298;48.792;9.154;2023-12-14T09:20:01;7.60;99.90
25342;DHT22;13298;48.792;9.154;2023-12-14T09:22:27;7.70;99.90
25342;DHT22;13298;48.792;9.154;2023-12-14T09:24:53;7.80;99.90
25342;DHT22;13298;48.792;9.154;2023-12-14T09:27:18;7.80;99.90
25342;DHT22;13298;48.792;9.154;2023-12-14T09:29:44;7.80;99.90
25342;DHT22;13298;48.792;9.154;2023-12-14T09:32:10;7.70;99.90
25342;DHT22;13298;48.792;9.154;2023-12-14T09:34:35;7.70;99.90
25342;DHT22;13298;48.792;9.154;2023-12-14T09:37:01;7.60;99.90
25342;DHT22;13298;48.792;9.154;2023-12-14T09:39:27;7.50;99.90
25342;DHT22;13298;48.792;9.154;2023-12-14T09:42:02;7.40;99.90
25342;DHT22;13298;48.792;9.154;2023-12-14T09:44:32;7.40;99.90
25342;DHT22;13298;48.792;9.154;2023-12-14T09:46:59;7.30;99.90
25342;DHT22;13298;48.792;9.154;2023-12-14T09:49:32;7.30;99.90
25342;DHT22;13298;48.792;9.154;2023-12-14T09:51:58;7.30;99.90
25342;DHT22;13298;48.792;9.154;2023-12-14T09:54:27;7.30;99.90
25342;DHT22;13298;48.792;9.154;2023-12-14T09:56:53;7.30;99.90
25342;DHT22;13298;48.792;9.154;2023-12-14T09:59:20;7.40;99.90
25342;DHT22;13298;48.792;9.154;2023-12-14T10:01:46;7.50;99.90
25342;DHT22;13298;48.792;9.154;2023-12-14T10:04:14;7.50;99.90
25342;DHT22;13298;48.792;9.154;2023-12-14T10:06:42;7.60;99.90
25342;DHT22;13298;48.792;9.154;2023-12-14T10:09:08;7.70;99.90
25342;DHT22;13298;48.792;9.154;2023-12-14T10:11:44;7.80;99.90
25342;DHT22;13298;48.792;9.154;2023-12-14T10:14:19;7.90;99.90
25342;DHT22;13298;48.792;9.154;2023-12-14T10:16:50;8.10;99.90
25342;DHT22;13298;48.792;9.154;2023-12-14T10:19:19;8.10;99.90
25342;DHT22;13298;48.792;9.154;2023-12-14T10:21:49;8.20;99.90
25342;DHT22;13298;48.792;9.154;2023-12-14T10:24:16;8.20;99.90
25342;DHT22;13298;48.792;9.154;2023-12-14T10:26:45;8.30;99.90
25342;DHT22;13298;48.792;9.154;2023-12-14T10:29:11;8.40;99.90
25342;DHT22;13298;48.792;9.154;2023-12-14T10:31:37;8.50;99.90
25342;DHT22;13298;48.792;9.154;2023-12-14T10:34:06;8.50;99.90
25342;DHT22;13298;48.792;9.154;2023-12-14T10:36:33;8.60;99.90
25342;DHT22;13298;48.792;9.154;2023-12-14T10:39:00;8.70;99.90
25342;DHT22;13298;48.792;9.154;2023-12-14T10:41:26;8.70;99.90
25342;DHT22;13298;48.792;9.154;2023-12-14T10:43:55;8.70;99.90
25342;DHT22;13298;48.792;9.154;2023-12-14T10:46:23;8.70;99.90
25342;DHT22;13298;48.792;9.154;2023-12-14T10:48:50;8.70;99.90
25342;DHT22;13298;48.792;9.154;2023-12-14T10:51:18;8.70;99.90
25342;DHT22;13298;48.792;9.154;2023-12-14T10:53:46;8.60;99.90
25342;DHT22;13298;48.792;9.154;2023-12-14T10:56:14;8.60;99.90
25342;DHT22;13298;48.792;9.154;2023-12-14T10:58:55;8.60;99.90
25342;DHT22;13298;48.792;9.154;2023-12-14T11:01:23;8.70;99.90
25342;DHT22;13298;48.792;9.154;2023-12-14T11:03:56;8.70;99.90
25342;DHT22;13298;48.792;9.154;2023-12-14T11:08:52;8.70;99.90
25342;DHT22;13298;48.792;9.154;2023-12-14T11:11:20;8.50;99.90
25342;DHT22;13298;48.792;9.154;2023-12-14T11:13:52;8.50;99.90
25342;DHT22;13298;48.792;9.154;2023-12-14T11:16:25;8.50;99.90
25342;DHT22;13298;48.792;9.154;2023-12-14T11:24:31;8.50;99.90
25342;DHT22;13298;48.792;9.154;2023-12-14T11:26:57;8.50;99.90
25342;DHT22;13298;48.792;9.154;2023-12-14T11:29:22;8.50;99.90
25342;DHT22;13298;48.792;9.154;2023-12-14T11:31:48;8.50;99.90
25342;DHT22;13298;48.792;9.154;2023-12-14T11:34:17;8.50;99.90
25342;DHT22;13298;48.792;9.154;2023-12-14T11:36:43;8.60;99.90
25342;DHT22;13298;48.792;9.154;2023-12-14T11:39:09;8.60;99.90
25342;DHT22;13298;48.792;9.154;2023-12-14T11:41:36;8.70;99.90
25342;DHT22;13298;48.792;9.154;2023-12-14T11:44:04;8.60;99.90
25342;DHT22;13298;48.792;9.154;2023-12-14T11:46:30;8.40;99.90
25342;DHT22;13298;48.792;9.154;2023-12-14T11:48:57;8.30;99.90
25342;DHT22;13298;48.792;9.154;2023-12-14T11:51:23;8.20;99.90
25342;DHT22;13298;48.792;9.154;2023-12-14T11:53:51;8.10;99.90
25342;DHT22;13298;48.792;9.154;2023-12-14T11:56:17;8.10;99.90
25342;DHT22;13298;48.792;9.154;2023-12-14T11:58:44;8.20;99.90
25342;DHT22;13298;48.792;9.154;2023-12-14T12:01:15;8.30;99.90
25342;DHT22;13298;48.792;9.154;2023-12-14T12:03:42;8.30;99.90
25342;DHT22;13298;48.792;9.154;2023-12-14T12:06:20;8.40;99.90
25342;DHT22;13298;48.792;9.154;2023-12-14T12:08:46;8.50;99.90
25342;DHT22;13298;48.792;9.154;2023-12-14T12:11:19;8.50;99.90
25342;DHT22;13298;48.792;9.154;2023-12-14T12:13:56;8.40;99.90
25342;DHT22;13298;48.792;9.154;2023-12-14T12:16:23;8.30;99.90
25342;DHT22;13298;48.792;9.154;2023-12-14T12:18:49;8.10;99.90
25342;DHT22;13298;48.792;9.154;2023-12-14T12:21:17;7.90;99.90
25342;DHT22;13298;48.792;9.154;2023-12-14T12:23:43;7.80;99.90
25342;DHT22;13298;48.792;9.154;2023-12-14T12:26:09;7.70;99.90
25342;DHT22;13298;48.792;9.154;2023-12-14T12:28:35;7.70;99.90
25342;DHT22;13298;48.792;9.154;2023-12-14T12:31:00;7.70;99.90
25342;DHT22;13298;48.792;9.154;2023-12-14T12:33:26;7.70;99.90
25342;DHT22;13298;48.792;9.154;2023-12-14T12:35:52;7.70;99.90
25342;DHT22;13298;48.792;9.154;2023-12-14T12:38:19;7.70;99.90
25342;DHT22;13298;48.792;9.154;2023-12-14T12:40:45;7.80;99.90
25342;DHT22;13298;48.792;9.154;2023-12-14T12:43:11;7.80;99.90
25342;DHT22;13298;48.792;9.154;2023-12-14T12:45:38;7.80;99.90
25342;DHT22;13298;48.792;9.154;2023-12-14T12:48:04;7.80;99.90
25342;DHT22;13298;48.792;9.154;2023-12-14T12:50:32;7.90;99.90
25342;DHT22;13298;48.792;9.154;2023-12-14T12:52:58;7.90;99.90
25342;DHT22;13298;48.792;9.154;2023-12-14T12:55:24;8.00;99.90
25342;DHT22;13298;48.792;9.154;2023-12-14T12:57:49;8.00;99.90
25342;DHT22;13298;48.792;9.154;2023-12-14T13:00:15;8.00;99.90
25342;DHT22;13298;48.792;9.154;2023-12-14T13:02:42;8.00;99.90
25342;DHT22;13298;48.792;9.154;2023-12-14T13:05:09;8.00;99.90
25342;DHT22;13298;48.792;9.154;2023-12-14T13:07:38;7.90;99.90
25342;DHT22;13298;48.792;9.154;2023-12-14T13:10:05;7.80;99.90
25342;DHT22;13298;48.792;9.154;2023-12-14T13:12:32;7.80;99.90
25342;DHT22;13298;48.792;9.154;2023-12-14T13:14:59;7.70;99.90
25342;DHT22;13298;48.792;9.154;2023-12-14T13:17:25;7.60;99.90
25342;DHT22;13298;48.792;9.154;2023-12-14T13:19:51;7.50;99.90
25342;DHT22;13298;48.792;9.154;2023-12-14T13:22:17;7.40;99.90
25342;DHT22;13298;48.792;9.154;2023-12-14T13:24:44;7.30;99.90
25342;DHT22;13298;48.792;9.154;2023-12-14T13:27:10;7.20;99.90
25342;DHT22;13298;48.792;9.154;2023-12-14T13:29:36;7.10;99.90
25342;DHT22;13298;48.792;9.154;2023-12-14T13:32:02;7.10;99.90
25342;DHT22;13298;48.792;9.154;2023-12-14T13:34:28;7.00;99.90
25342;DHT22;13298;48.792;9.154;2023-12-14T13:36:55;7.00;99.90
25342;DHT22;13298;48.792;9.154;2023-12-14T13:39:21;6.90;99.90
25342;DHT22;13298;48.792;9.154;2023-12-14T13:41:47;6.90;99.90
25342;DHT22;13298;48.792;9.154;2023-12-14T13:44:13;6.80;99.90
25342;DHT22;13298;48.792;9.154;2023-12-14T13:46:39;6.70;99.90
25342;DHT22;13298;48.792;9.154;2023-12-14T13:49:05;6.70;99.90
25342;DHT22;13298;48.792;9.154;2023-12-14T13:51:30;6.70;99.90
25342;DHT22;13298;48.792;9.154;2023-12-14T13:53:56;6.70;99.90
25342;DHT22;13298;48.792;9.154;2023-12-14T13:56:22;6.70;99.90
25342;DHT22;13298;48.792;9.154;2023-12-14T13:58:47;6.70;99.90
25342;DHT22;13298;48.792;9.154;2023-12-14T14:01:13;6.70;99.90
25342;DHT22;13298;48.792;9.154;2023-12-14T14:03:41;6.70;99.90
25342;DHT22;13298;48.792;9.154;2023-12-14T14:06:07;6.70;99.90
25342;DHT22;13298;48.792;9.154;2023-12-14T14:08:33;6.60;99.90
25342;DHT22;13298;48.792;9.154;2023-12-14T14:10:59;6.60;99.90
25342;DHT22;13298;48.792;9.154;2023-12-14T14:13:25;6.60;99.90
25342;DHT22;13298;48.792;9.154;2023-12-14T14:15:51;6.60;99.90
25342;DHT22;13298;48.792;9.154;2023-12-14T14:18:17;6.60;99.90
25342;DHT22;13298;48.792;9.154;2023-12-14T14:20:43;6.60;99.90
25342;DHT22;13298;48.792;9.154;2023-12-14T14:23:08;6.60;99.90
25342;DHT22;13298;48.792;9.154;2023-12-14T14:25:34;6.60;99.90
25342;DHT22;13298;48.792;9.154;2023-12-14T14:28:00;6.60;99.90
25342;DHT22;13298;48.792;9.154;2023-12-14T14:30:26;6.50;99.90
25342;DHT22;13298;48.792;9.154;2023-12-14T14:32:52;6.60;99.90
25342;DHT22;13298;48.792;9.154;2023-12-14T14:35:18;6.60;99.90
25342;DHT22;13298;48.792;9.154;2023-12-14T14:37:44;6.60;99.90
25342;DHT22;13298;48.792;9.154;2023-12-14T14:40:14;6.60;99.90
25342;DHT22;13298;48.792;9.154;2023-12-14T14:42:40;6.50;99.90
25342;DHT22;13298;48.792;9.154;2023-12-14T14:45:07;6.50;99.90
25342;DHT22;13298;48.792;9.154;2023-12-14T14:47:34;6.60;99.90
25342;DHT22;13298;48.792;9.154;2023-12-14T14:50:00;6.60;99.90
25342;DHT22;13298;48.792;9.154;2023-12-14T14:52:30;6.60;99.90
25342;DHT22;13298;48.792;9.154;2023-12-14T14:54:56;6.50;99.90
25342;DHT22;13298;48.792;9.154;2023-12-14T14:57:21;6.50;99.90
25342;DHT22;13298;48.792;9.154;2023-12-14T14:59:47;6.60;99.90
25342;DHT22;13298;48.792;9.154;2023-12-14T15:02:13;6.50;99.90
25342;DHT22;13298;48.792;9.154;2023-12-14T15:04:39;6.50;99.90
25342;DHT22;13298;48.792;9.154;2023-12-14T15:07:04;6.60;99.90
25342;DHT22;13298;48.792;9.154;2023-12-14T15:09:30;6.60;99.90
25342;DHT22;13298;48.792;9.154;2023-12-14T15:11:56;6.50;99.90
25342;DHT22;13298;48.792;9.154;2023-12-14T15:14:22;6.50;99.90
25342;DHT22;13298;48.792;9.154;2023-12-14T15:16:47;6.50;99.90
25342;DHT22;13298;48.792;9.154;2023-12-14T15:19:13;6.50;99.90
25342;DHT22;13298;48.792;9.154;2023-12-14T15:21:39;6.50;99.90
25342;DHT22;13298;48.792;9.154;2023-12-14T15:24:05;6.50;99.90
25342;DHT22;13298;48.792;9.154;2023-12-14T15:26:31;6.50;99.90
25342;DHT22;13298;48.792;9.154;2023-12-14T15:28:58;6.50;99.90
25342;DHT22;13298;48.792;9.154;2023-12-14T15:31:24;6.50;99.90
25342;DHT22;13298;48.792;9.154;2023-12-14T15:33:50;6.50;99.90
25342;DHT22;13298;48.792;9.154;2023-12-14T15:36:16;6.50;99.90
25342;DHT22;13298;48.792;9.154;2023-12-14T15:38:42;6.50;99.90
25342;DHT22;13298;48.792;9.154;2023-12-14T15:41:12;6.40;99.90
25342;DHT22;13298;48.792;9.154;2023-12-14T15:43:38;6.40;99.90
25342;DHT22;13298;48.792;9.154;2023-12-14T15:46:04;6.40;99.90
25342;DHT22;13298;48.792;9.154;2023-12-14T15:48:29;6.40;99.90